Terminal Aerodrome Forecast
Issued by NWS Missoula, MT

Home | Current Version | Previous Version | Text Only | Print | Product List | Glossary On
Versions: 1 2 3 4 5 6 7 8 9 10 11 12 13
000
FTUS45 KMSO 030015 AAA
TAFGPI
TAF AMD
KGPI 030015Z 0300/0324 VRB06KT P6SM BKN120
     FM031200 24012KT P6SM VCSH OVC060
     FM032100 17006KT P6SM -SHRA OVC060=

USA.gov is the U.S. government's official web portal to all federal, state and local government web resources and services.